sensor_id;sensor_type;location;lat;lon;timestamp;P1;durP1;ratioP1;P2;durP2;ratioP2
11699;SDS011;5906;51.660;6.674;2023-06-10T00:02:17;15.03;;;9.70;;
11699;SDS011;5906;51.660;6.674;2023-06-10T00:04:44;17.00;;;10.40;;
11699;SDS011;5906;51.660;6.674;2023-06-10T00:07:12;11.07;;;9.33;;
11699;SDS011;5906;51.660;6.674;2023-06-10T00:09:39;12.43;;;9.60;;
11699;SDS011;5906;51.660;6.674;2023-06-10T00:12:07;10.37;;;9.13;;
11699;SDS011;5906;51.660;6.674;2023-06-10T00:14:37;11.60;;;8.90;;
11699;SDS011;5906;51.660;6.674;2023-06-10T00:17:05;10.43;;;9.10;;
11699;SDS011;5906;51.660;6.674;2023-06-10T00:19:38;12.87;;;9.70;;
11699;SDS011;5906;51.660;6.674;2023-06-10T00:22:07;17.00;;;10.20;;
11699;SDS011;5906;51.660;6.674;2023-06-10T00:24:35;12.37;;;9.93;;
11699;SDS011;5906;51.660;6.674;2023-06-10T00:27:02;20.20;;;10.37;;
11699;SDS011;5906;51.660;6.674;2023-06-10T00:29:30;12.43;;;9.90;;
11699;SDS011;5906;51.660;6.674;2023-06-10T00:31:56;15.67;;;9.97;;
11699;SDS011;5906;51.660;6.674;2023-06-10T00:34:24;14.57;;;9.77;;
11699;SDS011;5906;51.660;6.674;2023-06-10T00:36:51;24.80;;;10.23;;
11699;SDS011;5906;51.660;6.674;2023-06-10T00:39:18;14.23;;;10.43;;
11699;SDS011;5906;51.660;6.674;2023-06-10T00:41:45;13.93;;;9.50;;
11699;SDS011;5906;51.660;6.674;2023-06-10T00:44:12;11.30;;;9.87;;
11699;SDS011;5906;51.660;6.674;2023-06-10T00:46:39;14.37;;;9.93;;
11699;SDS011;5906;51.660;6.674;2023-06-10T00:49:07;15.73;;;11.07;;
11699;SDS011;5906;51.660;6.674;2023-06-10T00:51:35;12.70;;;10.23;;
11699;SDS011;5906;51.660;6.674;2023-06-10T00:54:02;12.33;;;10.17;;
11699;SDS011;5906;51.660;6.674;2023-06-10T00:56:30;11.70;;;10.03;;
11699;SDS011;5906;51.660;6.674;2023-06-10T00:58:58;13.13;;;9.50;;
11699;SDS011;5906;51.660;6.674;2023-06-10T01:01:25;12.37;;;10.20;;
11699;SDS011;5906;51.660;6.674;2023-06-10T01:03:53;20.03;;;10.43;;
11699;SDS011;5906;51.660;6.674;2023-06-10T01:06:24;14.10;;;11.20;;
11699;SDS011;5906;51.660;6.674;2023-06-10T01:12:02;14.20;;;10.63;;
11699;SDS011;5906;51.660;6.674;2023-06-10T01:14:43;16.23;;;11.30;;
11699;SDS011;5906;51.660;6.674;2023-06-10T01:17:10;15.07;;;10.70;;
11699;SDS011;5906;51.660;6.674;2023-06-10T01:19:38;15.50;;;11.20;;
11699;SDS011;5906;51.660;6.674;2023-06-10T01:22:07;15.87;;;11.00;;
11699;SDS011;5906;51.660;6.674;2023-06-10T01:24:34;15.70;;;11.40;;
11699;SDS011;5906;51.660;6.674;2023-06-10T01:27:01;15.47;;;10.83;;
11699;SDS011;5906;51.660;6.674;2023-06-10T01:29:37;19.00;;;10.73;;
11699;SDS011;5906;51.660;6.674;2023-06-10T01:32:21;13.67;;;11.00;;
11699;SDS011;5906;51.660;6.674;2023-06-10T01:34:55;13.90;;;10.67;;
11699;SDS011;5906;51.660;6.674;2023-06-10T01:37:23;15.33;;;11.13;;
11699;SDS011;5906;51.660;6.674;2023-06-10T01:39:53;12.40;;;10.27;;
11699;SDS011;5906;51.660;6.674;2023-06-10T01:42:23;15.53;;;10.83;;
11699;SDS011;5906;51.660;6.674;2023-06-10T01:44:51;16.50;;;10.80;;
11699;SDS011;5906;51.660;6.674;2023-06-10T01:47:18;13.30;;;11.00;;
11699;SDS011;5906;51.660;6.674;2023-06-10T01:49:45;20.03;;;11.13;;
11699;SDS011;5906;51.660;6.674;2023-06-10T01:52:12;13.40;;;10.70;;
11699;SDS011;5906;51.660;6.674;2023-06-10T01:54:39;12.87;;;10.07;;
11699;SDS011;5906;51.660;6.674;2023-06-10T01:57:06;14.80;;;10.87;;
11699;SDS011;5906;51.660;6.674;2023-06-10T01:59:33;13.73;;;9.73;;
11699;SDS011;5906;51.660;6.674;2023-06-10T02:02:00;13.70;;;10.23;;
11699;SDS011;5906;51.660;6.674;2023-06-10T02:04:27;12.50;;;10.70;;
11699;SDS011;5906;51.660;6.674;2023-06-10T02:06:54;13.70;;;10.40;;
11699;SDS011;5906;51.660;6.674;2023-06-10T02:09:22;16.43;;;10.20;;
11699;SDS011;5906;51.660;6.674;2023-06-10T02:11:49;17.47;;;11.50;;
11699;SDS011;5906;51.660;6.674;2023-06-10T02:14:16;15.63;;;10.13;;
11699;SDS011;5906;51.660;6.674;2023-06-10T02:16:43;14.80;;;10.30;;
11699;SDS011;5906;51.660;6.674;2023-06-10T02:19:13;13.53;;;9.63;;
11699;SDS011;5906;51.660;6.674;2023-06-10T02:21:40;12.23;;;9.80;;
11699;SDS011;5906;51.660;6.674;2023-06-10T02:24:07;14.90;;;10.50;;
11699;SDS011;5906;51.660;6.674;2023-06-10T02:26:34;20.97;;;9.80;;
11699;SDS011;5906;51.660;6.674;2023-06-10T02:29:01;14.77;;;10.10;;
11699;SDS011;5906;51.660;6.674;2023-06-10T02:31:29;12.30;;;9.33;;
11699;SDS011;5906;51.660;6.674;2023-06-10T02:33:56;12.57;;;9.20;;
11699;SDS011;5906;51.660;6.674;2023-06-10T02:36:23;18.73;;;10.40;;
11699;SDS011;5906;51.660;6.674;2023-06-10T02:38:54;29.30;;;10.80;;
11699;SDS011;5906;51.660;6.674;2023-06-10T02:41:21;12.93;;;9.37;;
11699;SDS011;5906;51.660;6.674;2023-06-10T02:43:48;13.83;;;9.50;;
11699;SDS011;5906;51.660;6.674;2023-06-10T02:46:15;13.53;;;9.70;;
11699;SDS011;5906;51.660;6.674;2023-06-10T02:48:42;11.13;;;8.30;;
11699;SDS011;5906;51.660;6.674;2023-06-10T02:51:10;14.37;;;8.53;;
11699;SDS011;5906;51.660;6.674;2023-06-10T02:53:37;12.33;;;9.03;;
11699;SDS011;5906;51.660;6.674;2023-06-10T02:56:04;13.50;;;10.00;;
11699;SDS011;5906;51.660;6.674;2023-06-10T02:58:31;16.17;;;9.67;;
11699;SDS011;5906;51.660;6.674;2023-06-10T03:00:58;14.97;;;9.60;;
11699;SDS011;5906;51.660;6.674;2023-06-10T03:03:26;18.30;;;8.70;;
11699;SDS011;5906;51.660;6.674;2023-06-10T03:05:54;18.07;;;10.00;;
11699;SDS011;5906;51.660;6.674;2023-06-10T03:08:23;15.40;;;9.23;;
11699;SDS011;5906;51.660;6.674;2023-06-10T03:10:49;13.77;;;8.77;;
11699;SDS011;5906;51.660;6.674;2023-06-10T03:13:16;15.50;;;8.30;;
11699;SDS011;5906;51.660;6.674;2023-06-10T03:15:44;12.90;;;7.73;;
11699;SDS011;5906;51.660;6.674;2023-06-10T03:18:12;16.93;;;9.27;;
11699;SDS011;5906;51.660;6.674;2023-06-10T03:20:39;13.20;;;8.00;;
11699;SDS011;5906;51.660;6.674;2023-06-10T03:23:06;16.23;;;8.70;;
11699;SDS011;5906;51.660;6.674;2023-06-10T03:25:34;12.73;;;8.63;;
11699;SDS011;5906;51.660;6.674;2023-06-10T03:28:01;16.30;;;8.87;;
11699;SDS011;5906;51.660;6.674;2023-06-10T03:30:28;11.97;;;8.63;;
11699;SDS011;5906;51.660;6.674;2023-06-10T03:32:55;10.63;;;7.00;;
11699;SDS011;5906;51.660;6.674;2023-06-10T03:35:22;12.77;;;8.40;;
11699;SDS011;5906;51.660;6.674;2023-06-10T03:37:49;14.23;;;8.00;;
11699;SDS011;5906;51.660;6.674;2023-06-10T03:40:16;16.93;;;9.00;;
11699;SDS011;5906;51.660;6.674;2023-06-10T03:42:43;12.00;;;8.60;;
11699;SDS011;5906;51.660;6.674;2023-06-10T03:45:11;13.73;;;8.83;;
11699;SDS011;5906;51.660;6.674;2023-06-10T03:47:38;12.93;;;8.67;;
11699;SDS011;5906;51.660;6.674;2023-06-10T03:50:07;11.70;;;7.77;;
11699;SDS011;5906;51.660;6.674;2023-06-10T03:52:35;13.70;;;8.27;;
11699;SDS011;5906;51.660;6.674;2023-06-10T03:55:04;12.73;;;7.87;;
11699;SDS011;5906;51.660;6.674;2023-06-10T03:57:33;12.50;;;8.10;;
11699;SDS011;5906;51.660;6.674;2023-06-10T04:00:00;12.60;;;7.53;;
11699;SDS011;5906;51.660;6.674;2023-06-10T04:02:29;13.00;;;8.67;;
11699;SDS011;5906;51.660;6.674;2023-06-10T04:04:59;11.80;;;8.87;;
11699;SDS011;5906;51.660;6.674;2023-06-10T04:07:26;12.70;;;8.33;;
11699;SDS011;5906;51.660;6.674;2023-06-10T04:09:56;14.50;;;8.30;;
11699;SDS011;5906;51.660;6.674;2023-06-10T04:12:23;14.47;;;8.30;;
11699;SDS011;5906;51.660;6.674;2023-06-10T04:14:50;12.23;;;8.23;;
11699;SDS011;5906;51.660;6.674;2023-06-10T04:17:18;13.13;;;8.30;;
11699;SDS011;5906;51.660;6.674;2023-06-10T04:19:45;17.80;;;8.57;;
11699;SDS011;5906;51.660;6.674;2023-06-10T04:22:12;18.57;;;9.10;;
11699;SDS011;5906;51.660;6.674;2023-06-10T04:24:40;11.23;;;8.30;;
11699;SDS011;5906;51.660;6.674;2023-06-10T04:27:07;10.97;;;7.63;;
11699;SDS011;5906;51.660;6.674;2023-06-10T04:29:34;15.53;;;8.73;;
11699;SDS011;5906;51.660;6.674;2023-06-10T04:32:02;12.70;;;8.17;;
11699;SDS011;5906;51.660;6.674;2023-06-10T04:34:29;12.80;;;8.43;;
11699;SDS011;5906;51.660;6.674;2023-06-10T04:36:56;11.07;;;8.20;;
11699;SDS011;5906;51.660;6.674;2023-06-10T04:39:23;16.03;;;7.00;;
11699;SDS011;5906;51.660;6.674;2023-06-10T04:41:50;15.83;;;7.70;;
11699;SDS011;5906;51.660;6.674;2023-06-10T04:44:17;12.27;;;8.10;;
11699;SDS011;5906;51.660;6.674;2023-06-10T04:46:45;13.97;;;8.40;;
11699;SDS011;5906;51.660;6.674;2023-06-10T04:49:12;11.97;;;7.47;;
11699;SDS011;5906;51.660;6.674;2023-06-10T04:51:41;13.10;;;7.63;;
11699;SDS011;5906;51.660;6.674;2023-06-10T04:54:08;11.67;;;7.40;;
11699;SDS011;5906;51.660;6.674;2023-06-10T04:56:35;18.50;;;8.03;;
11699;SDS011;5906;51.660;6.674;2023-06-10T04:59:03;12.80;;;8.10;;
11699;SDS011;5906;51.660;6.674;2023-06-10T05:01:30;13.50;;;7.80;;
11699;SDS011;5906;51.660;6.674;2023-06-10T05:03:57;10.40;;;6.80;;
11699;SDS011;5906;51.660;6.674;2023-06-10T05:06:24;8.30;;;6.93;;
11699;SDS011;5906;51.660;6.674;2023-06-10T05:08:51;16.87;;;7.80;;
11699;SDS011;5906;51.660;6.674;2023-06-10T05:11:18;14.80;;;7.73;;
11699;SDS011;5906;51.660;6.674;2023-06-10T05:13:45;16.93;;;8.30;;
11699;SDS011;5906;51.660;6.674;2023-06-10T05:16:13;9.20;;;7.20;;
11699;SDS011;5906;51.660;6.674;2023-06-10T05:18:41;16.20;;;7.80;;
11699;SDS011;5906;51.660;6.674;2023-06-10T05:21:08;13.13;;;7.30;;
11699;SDS011;5906;51.660;6.674;2023-06-10T05:23:36;10.90;;;7.13;;
11699;SDS011;5906;51.660;6.674;2023-06-10T05:26:03;14.40;;;7.60;;
11699;SDS011;5906;51.660;6.674;2023-06-10T05:28:30;12.63;;;7.33;;
11699;SDS011;5906;51.660;6.674;2023-06-10T05:35:52;10.73;;;6.60;;
11699;SDS011;5906;51.660;6.674;2023-06-10T05:38:19;13.67;;;6.63;;
11699;SDS011;5906;51.660;6.674;2023-06-10T05:40:46;10.10;;;6.33;;
11699;SDS011;5906;51.660;6.674;2023-06-10T05:43:13;12.07;;;6.20;;
11699;SDS011;5906;51.660;6.674;2023-06-10T05:45:42;9.87;;;6.47;;
11699;SDS011;5906;51.660;6.674;2023-06-10T05:48:10;8.10;;;6.40;;
11699;SDS011;5906;51.660;6.674;2023-06-10T05:50:37;12.60;;;7.03;;
11699;SDS011;5906;51.660;6.674;2023-06-10T05:53:06;10.43;;;6.30;;
11699;SDS011;5906;51.660;6.674;2023-06-10T05:55:34;8.27;;;6.13;;
11699;SDS011;5906;51.660;6.674;2023-06-10T05:58:01;8.60;;;5.93;;
11699;SDS011;5906;51.660;6.674;2023-06-10T06:00:28;9.03;;;6.10;;
11699;SDS011;5906;51.660;6.674;2023-06-10T06:02:55;16.47;;;7.03;;
11699;SDS011;5906;51.660;6.674;2023-06-10T06:05:24;8.97;;;5.43;;
11699;SDS011;5906;51.660;6.674;2023-06-10T06:07:51;8.83;;;5.57;;
11699;SDS011;5906;51.660;6.674;2023-06-10T06:10:18;18.33;;;6.30;;
11699;SDS011;5906;51.660;6.674;2023-06-10T06:12:45;9.20;;;5.87;;
11699;SDS011;5906;51.660;6.674;2023-06-10T06:15:12;8.10;;;5.87;;
11699;SDS011;5906;51.660;6.674;2023-06-10T06:17:39;9.47;;;6.07;;
11699;SDS011;5906;51.660;6.674;2023-06-10T06:20:06;10.57;;;5.87;;
11699;SDS011;5906;51.660;6.674;2023-06-10T06:22:33;9.67;;;5.40;;
11699;SDS011;5906;51.660;6.674;2023-06-10T06:25:00;6.43;;;4.93;;
11699;SDS011;5906;51.660;6.674;2023-06-10T06:27:27;12.33;;;6.03;;
11699;SDS011;5906;51.660;6.674;2023-06-10T06:29:54;7.67;;;5.83;;
11699;SDS011;5906;51.660;6.674;2023-06-10T06:32:21;11.33;;;5.43;;
11699;SDS011;5906;51.660;6.674;2023-06-10T06:38:38;8.20;;;5.70;;
11699;SDS011;5906;51.660;6.674;2023-06-10T06:41:05;9.97;;;5.20;;
11699;SDS011;5906;51.660;6.674;2023-06-10T06:43:33;12.50;;;6.00;;
11699;SDS011;5906;51.660;6.674;2023-06-10T06:46:00;6.97;;;5.50;;
11699;SDS011;5906;51.660;6.674;2023-06-10T06:48:27;13.07;;;5.70;;
11699;SDS011;5906;51.660;6.674;2023-06-10T06:50:54;8.07;;;5.10;;
11699;SDS011;5906;51.660;6.674;2023-06-10T06:53:22;8.90;;;5.13;;
11699;SDS011;5906;51.660;6.674;2023-06-10T06:55:49;7.43;;;4.83;;
11699;SDS011;5906;51.660;6.674;2023-06-10T06:58:16;7.47;;;4.83;;
11699;SDS011;5906;51.660;6.674;2023-06-10T07:00:43;9.20;;;5.43;;
11699;SDS011;5906;51.660;6.674;2023-06-10T07:03:09;6.90;;;5.33;;
11699;SDS011;5906;51.660;6.674;2023-06-10T07:05:37;5.63;;;4.73;;
11699;SDS011;5906;51.660;6.674;2023-06-10T07:08:05;7.67;;;5.00;;
11699;SDS011;5906;51.660;6.674;2023-06-10T07:10:32;9.20;;;5.00;;
11699;SDS011;5906;51.660;6.674;2023-06-10T07:12:59;10.90;;;5.60;;
11699;SDS011;5906;51.660;6.674;2023-06-10T07:15:26;6.87;;;5.47;;
11699;SDS011;5906;51.660;6.674;2023-06-10T07:17:53;7.40;;;5.03;;
11699;SDS011;5906;51.660;6.674;2023-06-10T07:20:20;6.00;;;5.00;;
11699;SDS011;5906;51.660;6.674;2023-06-10T07:22:47;6.57;;;5.03;;
11699;SDS011;5906;51.660;6.674;2023-06-10T07:25:14;6.70;;;5.00;;
11699;SDS011;5906;51.660;6.674;2023-06-10T07:27:42;21.97;;;6.93;;
11699;SDS011;5906;51.660;6.674;2023-06-10T07:30:08;8.50;;;4.80;;
11699;SDS011;5906;51.660;6.674;2023-06-10T07:32:35;16.03;;;5.70;;
11699;SDS011;5906;51.660;6.674;2023-06-10T07:35:02;19.40;;;6.40;;
11699;SDS011;5906;51.660;6.674;2023-06-10T07:37:30;29.33;;;6.90;;
11699;SDS011;5906;51.660;6.674;2023-06-10T07:39:57;12.23;;;5.17;;
11699;SDS011;5906;51.660;6.674;2023-06-10T07:42:24;18.70;;;6.07;;
11699;SDS011;5906;51.660;6.674;2023-06-10T07:44:51;7.20;;;5.23;;
11699;SDS011;5906;51.660;6.674;2023-06-10T07:47:18;8.23;;;5.50;;
11699;SDS011;5906;51.660;6.674;2023-06-10T07:49:44;7.70;;;5.30;;
11699;SDS011;5906;51.660;6.674;2023-06-10T07:52:11;17.07;;;5.73;;
11699;SDS011;5906;51.660;6.674;2023-06-10T07:54:38;12.73;;;5.60;;
11699;SDS011;5906;51.660;6.674;2023-06-10T07:57:05;7.80;;;5.10;;
11699;SDS011;5906;51.660;6.674;2023-06-10T07:59:33;11.23;;;5.00;;
11699;SDS011;5906;51.660;6.674;2023-06-10T08:02:00;9.33;;;5.17;;
11699;SDS011;5906;51.660;6.674;2023-06-10T08:04:27;6.80;;;4.33;;
11699;SDS011;5906;51.660;6.674;2023-06-10T08:06:54;7.67;;;4.93;;
11699;SDS011;5906;51.660;6.674;2023-06-10T08:09:21;6.87;;;4.97;;
11699;SDS011;5906;51.660;6.674;2023-06-10T08:11:49;12.40;;;4.80;;
11699;SDS011;5906;51.660;6.674;2023-06-10T08:14:16;8.60;;;5.33;;
11699;SDS011;5906;51.660;6.674;2023-06-10T08:16:43;18.53;;;5.33;;
11699;SDS011;5906;51.660;6.674;2023-06-10T08:19:10;5.43;;;4.67;;
11699;SDS011;5906;51.660;6.674;2023-06-10T08:21:37;11.03;;;5.90;;
11699;SDS011;5906;51.660;6.674;2023-06-10T08:24:06;8.53;;;5.10;;
11699;SDS011;5906;51.660;6.674;2023-06-10T08:26:33;11.60;;;5.53;;
11699;SDS011;5906;51.660;6.674;2023-06-10T08:29:00;8.17;;;5.23;;
11699;SDS011;5906;51.660;6.674;2023-06-10T08:31:28;8.40;;;5.43;;
11699;SDS011;5906;51.660;6.674;2023-06-10T08:33:55;7.63;;;5.03;;
11699;SDS011;5906;51.660;6.674;2023-06-10T08:36:21;8.80;;;4.83;;
11699;SDS011;5906;51.660;6.674;2023-06-10T08:38:48;6.50;;;4.60;;
11699;SDS011;5906;51.660;6.674;2023-06-10T08:41:16;8.33;;;4.57;;
11699;SDS011;5906;51.660;6.674;2023-06-10T08:43:56;5.30;;;4.60;;
11699;SDS011;5906;51.660;6.674;2023-06-10T08:46:32;9.77;;;5.13;;
11699;SDS011;5906;51.660;6.674;2023-06-10T08:49:01;6.83;;;5.07;;
11699;SDS011;5906;51.660;6.674;2023-06-10T08:51:31;6.43;;;4.97;;
11699;SDS011;5906;51.660;6.674;2023-06-10T08:54:01;12.20;;;4.73;;
11699;SDS011;5906;51.660;6.674;2023-06-10T08:56:31;6.07;;;4.63;;
11699;SDS011;5906;51.660;6.674;2023-06-10T08:59:05;6.03;;;5.10;;
11699;SDS011;5906;51.660;6.674;2023-06-10T09:01:33;9.20;;;5.00;;
11699;SDS011;5906;51.660;6.674;2023-06-10T09:04:00;7.90;;;4.80;;
11699;SDS011;5906;51.660;6.674;2023-06-10T09:06:28;10.43;;;5.40;;
11699;SDS011;5906;51.660;6.674;2023-06-10T09:08:57;8.43;;;4.93;;
11699;SDS011;5906;51.660;6.674;2023-06-10T09:11:29;8.20;;;5.17;;
11699;SDS011;5906;51.660;6.674;2023-06-10T09:13:55;7.53;;;4.93;;
11699;SDS011;5906;51.660;6.674;2023-06-10T09:16:23;10.63;;;5.40;;
11699;SDS011;5906;51.660;6.674;2023-06-10T09:18:51;6.50;;;4.90;;
11699;SDS011;5906;51.660;6.674;2023-06-10T09:21:22;7.95;;;5.40;;
11699;SDS011;5906;51.660;6.674;2023-06-10T09:23:49;7.38;;;5.20;;
11699;SDS011;5906;51.660;6.674;2023-06-10T09:26:17;7.25;;;5.70;;
11699;SDS011;5906;51.660;6.674;2023-06-10T09:28:45;5.95;;;5.35;;
11699;SDS011;5906;51.660;6.674;2023-06-10T09:31:16;6.00;;;4.93;;
11699;SDS011;5906;51.660;6.674;2023-06-10T09:33:48;8.43;;;5.87;;
11699;SDS011;5906;51.660;6.674;2023-06-10T09:36:24;5.30;;;4.80;;
11699;SDS011;5906;51.660;6.674;2023-06-10T09:38:52;8.17;;;5.23;;
11699;SDS011;5906;51.660;6.674;2023-06-10T09:41:23;7.83;;;4.93;;
11699;SDS011;5906;51.660;6.674;2023-06-10T09:44:05;16.63;;;5.30;;
11699;SDS011;5906;51.660;6.674;2023-06-10T09:46:42;8.85;;;5.22;;
11699;SDS011;5906;51.660;6.674;2023-06-10T09:49:12;8.23;;;5.63;;
11699;SDS011;5906;51.660;6.674;2023-06-10T09:51:52;8.00;;;5.87;;
11699;SDS011;5906;51.660;6.674;2023-06-10T09:54:20;8.00;;;5.83;;
11699;SDS011;5906;51.660;6.674;2023-06-10T09:56:49;13.05;;;5.63;;
11699;SDS011;5906;51.660;6.674;2023-06-10T09:59:30;7.50;;;5.80;;
11699;SDS011;5906;51.660;6.674;2023-06-10T10:02:00;6.53;;;5.40;;
11699;SDS011;5906;51.660;6.674;2023-06-10T10:04:27;8.73;;;5.63;;
11699;SDS011;5906;51.660;6.674;2023-06-10T10:06:55;5.37;;;4.87;;
11699;SDS011;5906;51.660;6.674;2023-06-10T10:09:22;6.22;;;5.00;;
11699;SDS011;5906;51.660;6.674;2023-06-10T10:11:49;9.35;;;5.63;;
11699;SDS011;5906;51.660;6.674;2023-06-10T10:14:18;8.50;;;5.53;;
11699;SDS011;5906;51.660;6.674;2023-06-10T10:16:45;7.43;;;5.43;;
11699;SDS011;5906;51.660;6.674;2023-06-10T10:19:15;9.90;;;6.13;;
11699;SDS011;5906;51.660;6.674;2023-06-10T10:21:54;7.30;;;5.75;;
11699;SDS011;5906;51.660;6.674;2023-06-10T10:24:34;6.57;;;4.90;;
11699;SDS011;5906;51.660;6.674;2023-06-10T10:27:14;7.78;;;5.65;;
11699;SDS011;5906;51.660;6.674;2023-06-10T10:29:47;5.57;;;5.07;;
11699;SDS011;5906;51.660;6.674;2023-06-10T10:32:16;7.60;;;4.85;;
11699;SDS011;5906;51.660;6.674;2023-06-10T10:34:49;9.77;;;5.70;;
11699;SDS011;5906;51.660;6.674;2023-06-10T10:37:53;7.00;;;5.50;;
11699;SDS011;5906;51.660;6.674;2023-06-10T10:40:21;10.77;;;5.65;;
11699;SDS011;5906;51.660;6.674;2023-06-10T10:42:49;5.85;;;5.15;;
11699;SDS011;5906;51.660;6.674;2023-06-10T10:45:17;7.63;;;5.38;;
11699;SDS011;5906;51.660;6.674;2023-06-10T10:47:47;5.75;;;5.20;;
11699;SDS011;5906;51.660;6.674;2023-06-10T10:50:20;8.10;;;5.30;;
11699;SDS011;5906;51.660;6.674;2023-06-10T10:52:54;6.40;;;5.70;;
11699;SDS011;5906;51.660;6.674;2023-06-10T10:55:28;7.53;;;5.32;;
11699;SDS011;5906;51.660;6.674;2023-06-10T11:00:29;5.93;;;4.93;;
11699;SDS011;5906;51.660;6.674;2023-06-10T11:03:15;7.95;;;5.47;;
11699;SDS011;5906;51.660;6.674;2023-06-10T11:05:44;6.25;;;5.63;;
11699;SDS011;5906;51.660;6.674;2023-06-10T11:08:16;10.10;;;5.32;;
11699;SDS011;5906;51.660;6.674;2023-06-10T11:11:17;8.52;;;5.10;;
11699;SDS011;5906;51.660;6.674;2023-06-10T11:16:31;7.30;;;5.65;;
11699;SDS011;5906;51.660;6.674;2023-06-10T11:19:08;7.60;;;5.28;;
11699;SDS011;5906;51.660;6.674;2023-06-10T11:21:57;6.28;;;5.55;;
11699;SDS011;5906;51.660;6.674;2023-06-10T11:24:28;14.82;;;5.72;;
11699;SDS011;5906;51.660;6.674;2023-06-10T11:32:25;6.88;;;5.20;;
11699;SDS011;5906;51.660;6.674;2023-06-10T11:35:00;5.68;;;4.97;;
11699;SDS011;5906;51.660;6.674;2023-06-10T11:37:29;11.80;;;5.90;;
11699;SDS011;5906;51.660;6.674;2023-06-10T11:39:57;5.78;;;5.05;;
11699;SDS011;5906;51.660;6.674;2023-06-10T11:42:25;6.28;;;5.20;;
11699;SDS011;5906;51.660;6.674;2023-06-10T11:44:53;7.82;;;5.28;;
11699;SDS011;5906;51.660;6.674;2023-06-10T11:47:20;6.93;;;5.57;;
11699;SDS011;5906;51.660;6.674;2023-06-10T11:49:57;6.53;;;5.35;;
11699;SDS011;5906;51.660;6.674;2023-06-10T11:52:31;16.90;;;5.82;;
11699;SDS011;5906;51.660;6.674;2023-06-10T11:55:00;6.22;;;5.35;;
11699;SDS011;5906;51.660;6.674;2023-06-10T11:57:27;6.85;;;4.95;;
11699;SDS011;5906;51.660;6.674;2023-06-10T11:59:54;7.78;;;5.70;;
11699;SDS011;5906;51.660;6.674;2023-06-10T12:02:20;6.28;;;5.68;;
11699;SDS011;5906;51.660;6.674;2023-06-10T12:04:48;6.90;;;5.60;;
11699;SDS011;5906;51.660;6.674;2023-06-10T12:07:19;9.50;;;5.03;;
11699;SDS011;5906;51.660;6.674;2023-06-10T12:09:52;7.40;;;5.38;;
11699;SDS011;5906;51.660;6.674;2023-06-10T12:12:37;7.50;;;5.55;;
11699;SDS011;5906;51.660;6.674;2023-06-10T12:15:04;9.10;;;5.80;;
11699;SDS011;5906;51.660;6.674;2023-06-10T12:20:00;6.43;;;5.70;;
11699;SDS011;5906;51.660;6.674;2023-06-10T12:22:39;9.70;;;5.70;;
11699;SDS011;5906;51.660;6.674;2023-06-10T12:25:07;9.07;;;5.25;;
11699;SDS011;5906;51.660;6.674;2023-06-10T12:27:36;8.45;;;5.20;;
11699;SDS011;5906;51.660;6.674;2023-06-10T12:30:04;7.40;;;5.55;;
11699;SDS011;5906;51.660;6.674;2023-06-10T12:35:03;7.80;;;5.57;;
11699;SDS011;5906;51.660;6.674;2023-06-10T12:37:31;6.68;;;5.35;;
11699;SDS011;5906;51.660;6.674;2023-06-10T12:40:01;6.47;;;5.15;;
11699;SDS011;5906;51.660;6.674;2023-06-10T12:42:29;6.25;;;5.32;;
11699;SDS011;5906;51.660;6.674;2023-06-10T12:44:57;7.90;;;5.40;;
11699;SDS011;5906;51.660;6.674;2023-06-10T12:47:30;11.70;;;5.90;;
11699;SDS011;5906;51.660;6.674;2023-06-10T12:50:02;6.22;;;5.28;;
11699;SDS011;5906;51.660;6.674;2023-06-10T12:52:29;8.57;;;5.53;;
11699;SDS011;5906;51.660;6.674;2023-06-10T12:54:56;7.25;;;5.28;;
11699;SDS011;5906;51.660;6.674;2023-06-10T12:57:23;12.90;;;5.72;;
11699;SDS011;5906;51.660;6.674;2023-06-10T12:59:51;6.60;;;5.28;;
11699;SDS011;5906;51.660;6.674;2023-06-10T13:02:23;7.70;;;5.43;;
11699;SDS011;5906;51.660;6.674;2023-06-10T13:04:50;9.38;;;5.50;;
11699;SDS011;5906;51.660;6.674;2023-06-10T13:07:18;8.60;;;5.32;;
11699;SDS011;5906;51.660;6.674;2023-06-10T13:09:45;7.43;;;5.55;;
11699;SDS011;5906;51.660;6.674;2023-06-10T13:12:15;6.50;;;5.15;;
11699;SDS011;5906;51.660;6.674;2023-06-10T13:14:52;8.00;;;5.85;;
11699;SDS011;5906;51.660;6.674;2023-06-10T13:17:20;5.65;;;4.97;;
11699;SDS011;5906;51.660;6.674;2023-06-10T13:19:47;14.20;;;5.55;;
11699;SDS011;5906;51.660;6.674;2023-06-10T13:22:16;7.20;;;5.30;;
11699;SDS011;5906;51.660;6.674;2023-06-10T13:24:43;16.00;;;5.57;;
11699;SDS011;5906;51.660;6.674;2023-06-10T13:27:10;9.05;;;5.15;;
11699;SDS011;5906;51.660;6.674;2023-06-10T13:29:37;7.35;;;5.57;;
11699;SDS011;5906;51.660;6.674;2023-06-10T13:32:04;6.63;;;5.68;;
11699;SDS011;5906;51.660;6.674;2023-06-10T13:34:31;7.93;;;5.55;;
11699;SDS011;5906;51.660;6.674;2023-06-10T13:36:58;5.07;;;4.57;;
11699;SDS011;5906;51.660;6.674;2023-06-10T13:39:25;6.35;;;5.50;;
11699;SDS011;5906;51.660;6.674;2023-06-10T13:41:53;6.13;;;5.40;;
11699;SDS011;5906;51.660;6.674;2023-06-10T13:44:19;11.18;;;5.80;;
11699;SDS011;5906;51.660;6.674;2023-06-10T13:46:47;12.75;;;5.60;;
11699;SDS011;5906;51.660;6.674;2023-06-10T13:49:15;9.07;;;5.78;;
11699;SDS011;5906;51.660;6.674;2023-06-10T13:51:42;6.30;;;5.03;;
11699;SDS011;5906;51.660;6.674;2023-06-10T13:54:09;6.15;;;5.60;;
11699;SDS011;5906;51.660;6.674;2023-06-10T13:56:37;6.05;;;5.28;;
11699;SDS011;5906;51.660;6.674;2023-06-10T13:59:05;6.18;;;4.75;;
11699;SDS011;5906;51.660;6.674;2023-06-10T14:01:32;5.57;;;5.00;;
11699;SDS011;5906;51.660;6.674;2023-06-10T14:03:59;7.00;;;5.80;;
11699;SDS011;5906;51.660;6.674;2023-06-10T14:06:26;7.47;;;5.40;;
11699;SDS011;5906;51.660;6.674;2023-06-10T14:08:53;7.40;;;5.47;;
11699;SDS011;5906;51.660;6.674;2023-06-10T14:11:23;10.27;;;5.25;;
11699;SDS011;5906;51.660;6.674;2023-06-10T14:13:49;9.82;;;5.72;;
11699;SDS011;5906;51.660;6.674;2023-06-10T14:16:16;5.60;;;5.10;;
11699;SDS011;5906;51.660;6.674;2023-06-10T14:18:43;7.45;;;5.80;;
11699;SDS011;5906;51.660;6.674;2023-06-10T14:21:10;10.95;;;5.72;;
11699;SDS011;5906;51.660;6.674;2023-06-10T14:23:38;8.05;;;5.60;;
11699;SDS011;5906;51.660;6.674;2023-06-10T14:26:05;5.63;;;4.97;;
11699;SDS011;5906;51.660;6.674;2023-06-10T14:28:33;6.60;;;5.07;;
11699;SDS011;5906;51.660;6.674;2023-06-10T14:31:00;10.65;;;5.30;;
11699;SDS011;5906;51.660;6.674;2023-06-10T14:33:27;6.75;;;5.38;;
11699;SDS011;5906;51.660;6.674;2023-06-10T14:35:54;6.20;;;5.32;;
11699;SDS011;5906;51.660;6.674;2023-06-10T14:38:21;6.53;;;5.38;;
11699;SDS011;5906;51.660;6.674;2023-06-10T14:40:48;6.20;;;5.25;;
11699;SDS011;5906;51.660;6.674;2023-06-10T14:43:17;7.75;;;6.00;;
11699;SDS011;5906;51.660;6.674;2023-06-10T14:45:44;8.52;;;5.95;;
11699;SDS011;5906;51.660;6.674;2023-06-10T14:48:11;8.95;;;6.07;;
11699;SDS011;5906;51.660;6.674;2023-06-10T14:50:39;7.25;;;5.72;;
11699;SDS011;5906;51.660;6.674;2023-06-10T14:53:11;5.65;;;5.15;;
11699;SDS011;5906;51.660;6.674;2023-06-10T14:55:38;5.10;;;4.60;;
11699;SDS011;5906;51.660;6.674;2023-06-10T14:58:05;6.32;;;5.50;;
11699;SDS011;5906;51.660;6.674;2023-06-10T15:00:32;6.35;;;5.53;;
11699;SDS011;5906;51.660;6.674;2023-06-10T15:02:59;6.25;;;5.35;;
11699;SDS011;5906;51.660;6.674;2023-06-10T15:05:30;5.80;;;5.30;;
11699;SDS011;5906;51.660;6.674;2023-06-10T15:07:57;7.93;;;6.13;;
11699;SDS011;5906;51.660;6.674;2023-06-10T15:10:24;6.82;;;5.47;;
11699;SDS011;5906;51.660;6.674;2023-06-10T15:12:51;8.20;;;6.20;;
11699;SDS011;5906;51.660;6.674;2023-06-10T15:15:23;12.75;;;5.47;;
11699;SDS011;5906;51.660;6.674;2023-06-10T15:17:50;9.52;;;5.75;;
11699;SDS011;5906;51.660;6.674;2023-06-10T15:20:18;12.65;;;5.85;;
11699;SDS011;5906;51.660;6.674;2023-06-10T15:22:44;6.13;;;5.57;;
11699;SDS011;5906;51.660;6.674;2023-06-10T15:25:12;6.20;;;5.60;;
11699;SDS011;5906;51.660;6.674;2023-06-10T15:27:42;6.13;;;5.53;;
11699;SDS011;5906;51.660;6.674;2023-06-10T15:30:09;6.03;;;5.53;;